createdAt,value
2018-11-14T00:00:32.052Z,500.93
2018-11-14T00:03:03.032Z,568.07
2018-11-14T00:05:33.171Z,658.92
2018-11-14T00:08:03.407Z,1020.13
2018-11-14T00:10:33.354Z,855.30
2018-11-14T00:13:03.233Z,763.23
2018-11-14T00:15:33.117Z,905.33
2018-11-14T00:18:03.286Z,965.97
2018-11-14T00:20:33.215Z,1027.87
2018-11-14T00:23:03.245Z,892.93
2018-11-14T00:25:33.166Z,572.63
2018-11-14T00:28:03.506Z,797.03
2018-11-14T00:30:33.186Z,553.10
2018-11-14T00:33:03.158Z,714.73
2018-11-14T00:35:33.163Z,986.07
2018-11-14T00:38:03.200Z,763.73
2018-11-14T00:40:33.044Z,800.40
2018-11-14T00:43:02.957Z,780.67
2018-11-14T00:45:32.817Z,739.50
2018-11-14T00:48:02.988Z,769.60
2018-11-14T00:50:32.821Z,537.77
2018-11-14T00:53:02.640Z,466.70
2018-11-14T00:55:32.541Z,356.87
2018-11-14T00:58:02.332Z,617.27
2018-11-14T01:00:32.465Z,327.60
2018-11-14T01:03:02.399Z,851.00
2018-11-14T01:05:32.222Z,773.13
2018-11-14T01:08:02.096Z,783.90
2018-11-14T01:10:31.994Z,560.30
2018-11-14T01:13:02.083Z,507.80
2018-11-14T01:15:32.047Z,207.67
2018-11-14T01:18:01.883Z,636.83
2018-11-14T01:20:31.825Z,910.17
2018-11-14T01:23:01.705Z,845.87
2018-11-14T01:25:31.739Z,530.50
2018-11-14T01:28:01.560Z,763.17
2018-11-14T01:30:31.444Z,536.03
2018-11-14T01:33:01.302Z,1021.30
2018-11-14T01:35:31.251Z,898.80
2018-11-14T01:38:01.089Z,934.83
2018-11-14T01:40:31.135Z,931.83
2018-11-14T01:43:00.971Z,670.57
2018-11-14T01:45:30.834Z,863.90
2018-11-14T01:48:01.008Z,700.90
2018-11-14T01:50:30.804Z,455.17
2018-11-14T01:53:00.653Z,235.13
2018-11-14T01:55:30.511Z,534.70
2018-11-14T01:58:00.492Z,1006.77
2018-11-14T02:00:30.736Z,101.43
2018-11-14T02:03:00.675Z,882.80
2018-11-14T02:05:30.768Z,592.63
2018-11-14T02:08:00.729Z,870.17
2018-11-14T02:10:30.584Z,1137.97
2018-11-14T02:13:00.523Z,341.80
2018-11-14T02:15:30.364Z,796.73
2018-11-14T02:18:00.221Z,295.13
2018-11-14T02:20:29.997Z,168.27
2018-11-14T02:23:00.101Z,215.60
2018-11-14T02:25:30.321Z,121.37
2018-11-14T02:28:00.133Z,111.47
2018-11-14T02:30:30.188Z,97.60
2018-11-14T02:33:00.093Z,74.50
2018-11-14T02:35:29.952Z,113.33
2018-11-14T02:37:59.795Z,143.40
2018-11-14T02:40:29.633Z,184.63
2018-11-14T02:42:59.516Z,96.60
2018-11-14T02:45:29.352Z,120.93
2018-11-14T02:47:59.192Z,258.80
2018-11-14T02:50:29.114Z,103.43
2018-11-14T02:52:59.068Z,134.67
2018-11-14T02:55:28.846Z,103.67
2018-11-14T02:57:58.664Z,92.93
2018-11-14T03:00:28.516Z,64.80
2018-11-14T03:02:58.467Z,71.43
2018-11-14T03:05:28.426Z,94.83
2018-11-14T03:07:58.289Z,57.20
2018-11-14T03:10:28.200Z,67.57
2018-11-14T03:12:58.078Z,59.47
2018-11-14T03:15:27.905Z,60.87
2018-11-14T03:17:57.844Z,73.10
2018-11-14T03:20:27.722Z,71.50
2018-11-14T03:22:57.551Z,60.03
2018-11-14T03:25:27.400Z,64.87
2018-11-14T03:27:57.192Z,67.97
2018-11-14T03:30:27.145Z,79.47
2018-11-14T03:32:56.949Z,67.33
2018-11-14T03:35:30.769Z,100.67
2018-11-14T03:38:00.578Z,91.97
2018-11-14T03:40:30.408Z,65.70
2018-11-14T03:43:00.224Z,64.20
2018-11-14T03:45:30.050Z,66.13
2018-11-14T03:47:59.901Z,83.00
2018-11-14T03:50:29.724Z,60.10
2018-11-14T03:56:35.300Z,56.07
2018-11-14T03:59:06.006Z,54.10
2018-11-14T04:01:35.790Z,60.30
2018-11-14T04:04:06.142Z,53.57
2018-11-14T04:06:35.949Z,49.10
2018-11-14T04:09:09.879Z,52.37
2018-11-14T04:11:39.985Z,57.60
2018-11-14T04:14:10.116Z,68.97
2018-11-14T04:16:39.962Z,62.23
2018-11-14T04:19:10.833Z,57.53
2018-11-14T04:21:40.691Z,63.33
2018-11-14T04:24:10.527Z,65.67
2018-11-14T04:26:40.307Z,77.13
2018-11-14T04:29:10.355Z,69.33
2018-11-14T04:31:40.597Z,63.37
2018-11-14T04:34:11.148Z,76.97
2018-11-14T04:36:41.039Z,75.53
2018-11-14T04:39:11.723Z,71.80
2018-11-14T04:41:41.763Z,70.53
2018-11-14T04:44:12.481Z,70.77
2018-11-14T04:46:42.370Z,71.37
2018-11-14T04:49:12.214Z,76.50
2018-11-14T04:51:42.005Z,74.17
2018-11-14T04:54:11.795Z,59.27
2018-11-14T04:56:41.819Z,57.70
2018-11-14T04:59:11.649Z,57.73
2018-11-14T05:01:41.507Z,61.33
2018-11-14T05:04:11.380Z,61.30
2018-11-14T05:06:41.265Z,77.70
2018-11-14T05:09:12.800Z,80.20
2018-11-14T05:11:43.051Z,80.17
2018-11-14T05:14:12.860Z,100.03
2018-11-14T05:16:42.685Z,71.33
2018-11-14T05:19:12.593Z,68.40
2018-11-14T05:21:42.502Z,62.47
2018-11-14T05:24:12.314Z,58.47
2018-11-14T05:26:42.231Z,57.60
2018-11-14T05:29:12.136Z,49.67
2018-11-14T05:31:42.018Z,49.73
2018-11-14T05:34:12.059Z,47.43
2018-11-14T05:36:41.851Z,43.47
2018-11-14T05:39:12.403Z,39.87
2018-11-14T05:41:42.328Z,37.33
2018-11-14T05:44:12.322Z,32.67
2018-11-14T05:46:42.161Z,97.60
2018-11-14T05:49:12.235Z,51.70
2018-11-14T05:51:42.052Z,42.37
2018-11-14T05:54:11.866Z,45.10
2018-11-14T05:56:41.837Z,46.07
2018-11-14T05:59:11.725Z,39.40
2018-11-14T06:01:41.533Z,42.83
2018-11-14T06:04:11.841Z,37.90
2018-11-14T06:06:41.861Z,34.43
2018-11-14T06:09:13.950Z,38.70
2018-11-14T06:11:43.821Z,40.30
2018-11-14T06:14:13.615Z,35.03
2018-11-14T06:16:43.441Z,38.00
2018-11-14T06:19:13.308Z,34.80
2018-11-14T06:21:43.295Z,35.43
2018-11-14T06:24:13.312Z,34.90
2018-11-14T06:26:43.345Z,29.17
2018-11-14T06:29:13.423Z,35.57
2018-11-14T06:31:43.247Z,30.57
2018-11-14T06:34:13.073Z,33.33
2018-11-14T06:36:42.965Z,29.43
2018-11-14T06:39:13.058Z,29.23
2018-11-14T06:41:42.917Z,29.77
2018-11-14T06:44:12.946Z,31.80
2018-11-14T06:46:42.798Z,28.17
2018-11-14T06:49:12.629Z,29.47
2018-11-14T06:51:42.449Z,30.70
2018-11-14T06:54:12.258Z,29.63
2018-11-14T06:56:42.066Z,30.50
2018-11-14T06:59:11.929Z,27.97
2018-11-14T07:01:41.872Z,30.37
2018-11-14T07:04:39.843Z,29.13
2018-11-14T07:07:09.739Z,27.40
2018-11-14T07:09:39.544Z,26.50
2018-11-14T07:12:09.368Z,26.43
2018-11-14T07:14:39.116Z,24.40
2018-11-14T07:17:08.872Z,25.63
2018-11-14T07:19:38.826Z,30.40
2018-11-14T07:22:08.643Z,36.80
2018-11-14T07:24:38.495Z,33.17
2018-11-14T07:27:08.446Z,30.80
2018-11-14T07:29:38.221Z,31.73
2018-11-14T07:32:08.152Z,34.70
2018-11-14T07:34:38.074Z,31.27
2018-11-14T07:37:07.901Z,27.90
2018-11-14T07:39:37.676Z,26.97
2018-11-14T07:42:07.478Z,32.33
2018-11-14T07:44:37.351Z,37.33
2018-11-14T07:47:07.136Z,119.73
2018-11-14T07:49:36.881Z,315.93
2018-11-14T07:52:07.002Z,295.73
2018-11-14T07:54:36.793Z,103.30
2018-11-14T07:57:06.858Z,119.47
2018-11-14T07:59:36.668Z,54.57
2018-11-14T08:02:07.025Z,399.83
2018-11-14T08:04:36.924Z,70.97
2018-11-14T08:07:07.224Z,82.43
2018-11-14T08:09:37.092Z,81.30
2018-11-14T08:12:07.548Z,65.60
2018-11-14T08:14:37.325Z,118.03
2018-11-14T08:17:07.621Z,296.67
2018-11-14T08:19:37.417Z,80.50
2018-11-14T08:22:07.240Z,92.30
2018-11-14T08:24:37.068Z,103.60
2018-11-14T08:27:07.552Z,74.30
2018-11-14T08:29:37.316Z,79.27
2018-11-14T08:32:07.819Z,144.20
2018-11-14T08:34:37.684Z,117.47
2018-11-14T08:37:07.436Z,114.57
2018-11-14T08:39:37.191Z,197.93
2018-11-14T08:42:07.143Z,61.10
2018-11-14T08:44:36.858Z,113.47
2018-11-14T08:47:07.337Z,106.33
2018-11-14T08:49:37.122Z,141.93
2018-11-14T08:52:07.470Z,261.67
2018-11-14T08:54:37.439Z,144.33
2018-11-14T08:57:07.672Z,94.40
2018-11-14T08:59:37.421Z,76.97
2018-11-14T09:02:07.583Z,95.97
2018-11-14T09:04:37.340Z,108.73
2018-11-14T09:07:08.210Z,89.33
2018-11-14T09:09:38.003Z,54.40
2018-11-14T09:12:08.292Z,66.57
2018-11-14T09:14:38.620Z,205.40
2018-11-14T09:17:09.204Z,265.67
2018-11-14T09:19:38.992Z,72.63
2018-11-14T09:22:08.811Z,88.37
2018-11-14T09:24:38.613Z,82.47
2018-11-14T09:27:08.520Z,111.20
2018-11-14T09:29:38.334Z,49.97
2018-11-14T09:32:08.220Z,55.77
2018-11-14T09:34:38.600Z,44.30
2018-11-14T09:37:08.563Z,39.60
2018-11-14T09:39:38.319Z,99.87
2018-11-14T09:42:08.091Z,58.80
2018-11-14T09:44:38.043Z,40.47
2018-11-14T09:47:08.025Z,104.70
2018-11-14T09:49:37.790Z,37.30
2018-11-14T09:52:07.552Z,36.17
2018-11-14T09:54:37.331Z,37.80
2018-11-14T09:57:07.224Z,108.37
2018-11-14T09:59:37.057Z,148.57
2018-11-14T10:02:07.213Z,54.17
2018-11-14T10:04:37.006Z,79.20
2018-11-14T10:07:06.776Z,332.33
2018-11-14T10:09:36.519Z,61.47
2018-11-14T10:12:06.862Z,69.10
2018-11-14T10:14:36.627Z,59.40
2018-11-14T10:17:06.509Z,101.90
2018-11-14T10:19:36.509Z,88.17
2018-11-14T10:22:06.423Z,78.17
2018-11-14T10:24:36.200Z,55.40
2018-11-14T10:27:06.538Z,65.10
2018-11-14T10:29:36.294Z,92.33
2018-11-14T10:32:06.433Z,50.47
2018-11-14T10:34:36.194Z,170.73
2018-11-14T10:37:06.428Z,64.43
2018-11-14T10:39:36.338Z,90.83
2018-11-14T10:42:06.172Z,104.57
2018-11-14T10:44:36.082Z,39.63
2018-11-14T10:47:06.235Z,116.93
2018-11-14T10:49:36.003Z,75.37
2018-11-14T10:52:05.771Z,94.00
2018-11-14T10:54:35.589Z,116.17
2018-11-14T10:57:05.357Z,241.07
2018-11-14T10:59:35.144Z,112.47
2018-11-14T11:02:10.043Z,104.27
2018-11-14T11:04:44.991Z,92.80
2018-11-14T11:07:20.339Z,175.30
2018-11-14T11:09:55.339Z,52.70
2018-11-14T11:12:30.221Z,83.17
2018-11-14T11:15:05.074Z,60.73
2018-11-14T11:17:40.081Z,59.53
2018-11-14T11:20:10.612Z,66.17
2018-11-14T11:22:40.421Z,58.03
2018-11-14T11:25:10.208Z,57.23
2018-11-14T11:27:39.979Z,52.83
2018-11-14T11:30:11.449Z,58.97
2018-11-14T11:32:41.330Z,38.37
2018-11-14T11:35:11.150Z,42.07
2018-11-14T11:44:29.244Z,48.03
2018-11-14T11:46:59.050Z,34.23
2018-11-14T11:49:28.830Z,32.23
2018-11-14T11:51:58.563Z,31.83
2018-11-14T11:54:28.461Z,37.73
2018-11-14T11:56:58.184Z,36.07
2018-11-14T11:59:27.980Z,27.77
2018-11-14T12:01:57.930Z,30.80
2018-11-14T12:04:27.850Z,32.17
2018-11-14T12:06:57.601Z,30.83
2018-11-14T12:09:27.348Z,33.17
2018-11-14T12:11:57.124Z,39.53
2018-11-14T12:14:26.859Z,32.37
2018-11-14T12:16:56.774Z,37.70
2018-11-14T12:19:26.532Z,34.40
2018-11-14T12:21:56.313Z,30.57
2018-11-14T12:24:26.119Z,34.63
2018-11-14T12:26:55.953Z,43.10
2018-11-14T12:29:25.757Z,64.50
2018-11-14T12:31:55.487Z,36.10
2018-11-14T12:34:25.287Z,32.10
2018-11-14T12:36:55.231Z,36.00
2018-11-14T12:39:25.006Z,96.83
2018-11-14T12:41:54.779Z,34.70
2018-11-14T12:44:24.534Z,124.77
2018-11-14T12:46:54.293Z,31.47
2018-11-14T12:49:24.119Z,33.67
2018-11-14T12:51:54.159Z,121.17
2018-11-14T12:54:23.909Z,32.60
2018-11-14T12:56:53.711Z,41.50
2018-11-14T12:59:23.653Z,37.80
2018-11-14T13:01:53.711Z,40.90
2018-11-14T13:04:23.434Z,40.20
2018-11-14T13:06:53.188Z,114.07
2018-11-14T13:09:22.963Z,35.00
2018-11-14T13:11:52.764Z,31.00
2018-11-14T13:14:22.556Z,87.30
2018-11-14T13:16:52.407Z,171.00
2018-11-14T13:19:22.153Z,33.17
2018-11-14T13:21:51.902Z,38.10
2018-11-14T13:24:21.738Z,31.77
2018-11-14T13:26:51.474Z,46.33
2018-11-14T13:29:21.233Z,41.20
2018-11-14T13:31:50.982Z,71.40
2018-11-14T13:34:20.733Z,39.37
2018-11-14T13:36:50.622Z,78.37
2018-11-14T13:39:20.382Z,33.80
2018-11-14T13:41:50.118Z,44.93
2018-11-14T13:44:19.869Z,28.43
2018-11-14T13:46:49.644Z,25.90
2018-11-14T13:49:19.665Z,27.87
2018-11-14T13:51:49.455Z,31.03
2018-11-14T13:54:19.231Z,34.57
2018-11-14T13:56:48.970Z,35.97
2018-11-14T13:59:18.724Z,40.40
2018-11-14T14:01:48.676Z,34.50
2018-11-14T14:04:18.558Z,46.07
2018-11-14T14:06:48.356Z,40.00
2018-11-14T14:09:18.443Z,35.70
2018-11-14T14:11:48.435Z,34.13
2018-11-14T14:14:19.114Z,33.47
2018-11-14T14:16:48.863Z,138.17
2018-11-14T14:19:18.620Z,71.73
2018-11-14T14:21:48.533Z,49.27
2018-11-14T14:24:18.275Z,35.50
2018-11-14T14:26:48.032Z,131.47
2018-11-14T14:29:17.824Z,40.47
2018-11-14T14:31:47.673Z,35.73
2018-11-14T14:34:17.446Z,134.40
2018-11-14T14:36:47.218Z,60.13
2018-11-14T14:39:16.951Z,36.60
2018-11-14T14:41:46.698Z,34.77
2018-11-14T14:44:16.439Z,70.07
2018-11-14T14:46:46.195Z,41.23
2018-11-14T14:49:15.990Z,36.57
2018-11-14T14:51:45.752Z,83.07
2018-11-14T14:54:15.590Z,130.13
2018-11-14T14:56:45.380Z,127.73
2018-11-14T14:59:15.184Z,67.27
2018-11-14T15:01:44.950Z,45.87
2018-11-14T15:04:14.704Z,123.37
2018-11-14T15:06:44.572Z,119.07
2018-11-14T15:09:14.359Z,49.00
2018-11-14T15:11:44.133Z,83.07
2018-11-14T15:14:13.891Z,88.37
2018-11-14T15:16:43.699Z,82.90
2018-11-14T15:19:13.432Z,41.10
2018-11-14T15:21:43.190Z,118.00
2018-11-14T15:24:13.149Z,65.30
2018-11-14T15:26:42.909Z,146.53
2018-11-14T15:29:12.672Z,157.73
2018-11-14T15:31:42.423Z,153.70
2018-11-14T15:34:12.170Z,169.83
2018-11-14T15:36:41.918Z,89.70
2018-11-14T15:39:13.035Z,51.43
2018-11-14T15:41:42.783Z,51.37
2018-11-14T15:44:12.547Z,38.27
2018-11-14T15:46:42.336Z,50.60
2018-11-14T15:49:12.483Z,48.40
2018-11-14T15:51:42.339Z,51.27
2018-11-14T15:54:12.275Z,73.23
2018-11-14T15:56:42.082Z,63.50
2018-11-14T15:59:11.860Z,197.33
2018-11-14T16:01:41.624Z,38.63
2018-11-14T16:04:11.591Z,45.60
2018-11-14T16:06:41.378Z,36.90
2018-11-14T16:09:13.075Z,100.37
2018-11-14T16:11:42.790Z,41.57
2018-11-14T16:14:12.529Z,32.47
2018-11-14T16:16:42.290Z,48.47
2018-11-14T16:19:12.035Z,84.07
2018-11-14T16:21:41.815Z,69.47
2018-11-14T16:24:11.578Z,63.60
2018-11-14T16:26:41.328Z,33.27
2018-11-14T16:29:11.122Z,32.33
2018-11-14T16:31:40.895Z,33.93
2018-11-14T16:34:10.837Z,36.03
2018-11-14T16:36:40.687Z,47.80
2018-11-14T16:39:12.625Z,47.87
2018-11-14T16:41:42.407Z,35.27
2018-11-14T16:44:12.200Z,118.57
2018-11-14T16:46:41.951Z,136.13
2018-11-14T16:49:11.697Z,81.47
2018-11-14T16:51:41.497Z,153.83
2018-11-14T16:54:11.262Z,97.37
2018-11-14T16:56:41.039Z,121.33
2018-11-14T16:59:10.940Z,75.93
2018-11-14T17:01:40.699Z,61.93
2018-11-14T17:04:10.499Z,74.67
2018-11-14T17:06:40.686Z,65.07
2018-11-14T17:09:12.668Z,38.07
2018-11-14T17:11:42.746Z,139.47
2018-11-14T17:14:12.603Z,49.53
2018-11-14T17:16:42.346Z,40.63
2018-11-14T17:19:12.144Z,69.90
2018-11-14T17:21:41.925Z,140.43
2018-11-14T17:24:11.900Z,94.20
2018-11-14T17:26:41.671Z,147.40
2018-11-14T17:29:11.506Z,110.07
2018-11-14T17:31:41.271Z,64.60
2018-11-14T17:34:11.058Z,115.80
2018-11-14T17:36:40.852Z,72.67
2018-11-14T17:39:13.859Z,93.10
2018-11-14T17:41:44.240Z,107.83
2018-11-14T17:44:14.169Z,99.83
2018-11-14T17:46:43.905Z,45.07
2018-11-14T17:49:13.698Z,41.20
2018-11-14T17:51:43.460Z,69.73
2018-11-14T17:54:13.265Z,248.83
2018-11-14T17:56:43.038Z,93.80
2018-11-14T17:59:13.017Z,113.33
2018-11-14T18:01:42.780Z,250.63
2018-11-14T18:04:12.621Z,103.70
2018-11-14T18:06:42.795Z,68.90
2018-11-14T18:09:14.282Z,61.80
2018-11-14T18:11:44.031Z,68.30
2018-11-14T18:14:13.805Z,125.63
2018-11-14T18:16:43.654Z,71.83
2018-11-14T18:19:13.573Z,55.80
2018-11-14T18:21:43.316Z,107.87
2018-11-14T18:24:13.260Z,41.70
2018-11-14T18:26:42.997Z,49.13
2018-11-14T18:29:12.756Z,54.57
2018-11-14T18:31:42.543Z,45.40
2018-11-14T18:34:12.262Z,45.43
2018-11-14T18:36:42.173Z,44.43
2018-11-14T18:39:13.878Z,40.80
2018-11-14T18:41:44.290Z,71.67
2018-11-14T18:44:14.092Z,51.67
2018-11-14T18:46:43.811Z,68.03
2018-11-14T18:49:13.785Z,61.73
2018-11-14T18:51:43.562Z,267.67
2018-11-14T18:54:13.373Z,111.53
2018-11-14T18:56:43.117Z,95.50
2018-11-14T18:59:12.864Z,227.53
2018-11-14T19:01:42.712Z,112.37
2018-11-14T19:04:12.458Z,523.27
2018-11-14T19:06:42.351Z,433.03
2018-11-14T19:09:12.253Z,157.70
2018-11-14T19:11:42.039Z,255.67
2018-11-14T19:14:11.904Z,297.40
2018-11-14T19:16:41.637Z,1047.13
2018-11-14T19:19:11.463Z,151.00
2018-11-14T19:21:41.367Z,230.00
2018-11-14T19:24:11.119Z,227.93
2018-11-14T19:26:40.981Z,390.90
2018-11-14T19:29:10.778Z,237.47
2018-11-14T19:31:40.550Z,271.40
2018-11-14T19:34:10.334Z,463.43
2018-11-14T19:36:40.129Z,683.90
2018-11-14T19:39:12.593Z,1057.90
2018-11-14T19:41:42.804Z,1450.30
2018-11-14T19:44:12.605Z,737.97
2018-11-14T19:46:42.429Z,613.37
2018-11-14T19:49:12.231Z,986.00
2018-11-14T19:51:42.144Z,634.83
2018-11-14T19:54:11.915Z,341.73
2018-11-14T19:56:41.657Z,711.93
2018-11-14T19:59:11.781Z,469.03
2018-11-14T20:01:41.595Z,552.40
2018-11-14T20:04:11.423Z,437.43
2018-11-14T20:06:41.231Z,353.97
2018-11-14T20:09:11.856Z,209.53
2018-11-14T20:11:41.642Z,246.17
2018-11-14T20:14:11.419Z,510.43
2018-11-14T20:16:41.195Z,168.43
2018-11-14T20:19:10.903Z,128.33
2018-11-14T20:21:40.693Z,178.83
2018-11-14T20:24:10.437Z,205.20
2018-11-14T20:26:40.317Z,171.30
2018-11-14T20:29:10.056Z,145.10
2018-11-14T20:31:39.928Z,221.37
2018-11-14T20:34:09.907Z,127.57
2018-11-14T20:36:39.769Z,126.43
2018-11-14T20:39:12.198Z,117.97
2018-11-14T20:41:42.183Z,95.87
2018-11-14T20:44:11.941Z,122.93
2018-11-14T20:46:41.705Z,102.33
2018-11-14T20:49:11.494Z,91.70
2018-11-14T20:51:41.483Z,111.53
2018-11-14T20:54:11.286Z,95.10
2018-11-14T20:56:41.100Z,64.27
2018-11-14T20:59:10.858Z,53.10
2018-11-14T21:01:40.635Z,55.73
2018-11-14T21:04:10.395Z,57.77
2018-11-14T21:06:40.179Z,51.53
2018-11-14T21:09:11.165Z,48.90
2018-11-14T21:11:40.905Z,46.40
2018-11-14T21:14:10.738Z,43.47
2018-11-14T21:16:40.551Z,43.33
2018-11-14T21:19:10.323Z,40.07
2018-11-14T21:21:40.113Z,39.03
2018-11-14T21:24:09.863Z,36.57
2018-11-14T21:26:39.639Z,29.27
2018-11-14T21:29:09.367Z,30.03
2018-11-14T21:31:39.933Z,30.97
2018-11-14T21:34:09.718Z,30.17
2018-11-14T21:36:39.551Z,26.83
2018-11-14T21:39:12.710Z,29.07
2018-11-14T21:41:43.553Z,26.80
2018-11-14T21:44:13.345Z,28.93
2018-11-14T21:46:43.079Z,25.57
2018-11-14T21:49:18.198Z,28.37
2018-11-14T21:51:47.969Z,27.23
2018-11-14T21:54:17.723Z,22.53
2018-11-14T21:56:47.527Z,20.63
2018-11-14T21:59:17.257Z,19.97
2018-11-14T22:01:47.173Z,22.17
2018-11-14T22:04:16.955Z,21.37
2018-11-14T22:06:46.734Z,23.80
2018-11-14T22:09:16.515Z,21.50
2018-11-14T22:11:46.262Z,22.23
2018-11-14T22:14:16.015Z,24.80
2018-11-14T22:16:45.777Z,23.00
2018-11-14T22:19:15.545Z,18.87
2018-11-14T22:21:45.488Z,20.80
2018-11-14T22:24:15.270Z,19.03
2018-11-14T22:26:45.028Z,20.23
2018-11-14T22:29:14.783Z,19.80
2018-11-14T22:31:44.535Z,15.77
2018-11-14T22:34:14.367Z,17.50
2018-11-14T22:36:44.326Z,16.23
2018-11-14T22:39:14.109Z,16.37
2018-11-14T22:41:43.883Z,19.37
2018-11-14T22:44:13.984Z,17.27
2018-11-14T22:46:43.749Z,15.30
2018-11-14T22:49:13.496Z,15.07
2018-11-14T22:51:43.290Z,16.20
2018-11-14T22:54:13.412Z,17.07
2018-11-14T22:56:43.197Z,16.27
2018-11-14T22:59:12.942Z,16.43
2018-11-14T23:01:42.714Z,15.37
2018-11-14T23:04:12.441Z,16.90
2018-11-14T23:06:42.219Z,14.40
2018-11-14T23:09:13.450Z,15.27
2018-11-14T23:11:43.208Z,14.70
2018-11-14T23:14:12.930Z,13.77
2018-11-14T23:16:42.735Z,13.17
2018-11-14T23:19:12.468Z,15.90
2018-11-14T23:21:42.252Z,17.73
2018-11-14T23:24:12.110Z,14.27
2018-11-14T23:26:41.908Z,17.77
2018-11-14T23:29:11.680Z,15.53
2018-11-14T23:31:41.474Z,13.87
2018-11-14T23:34:11.288Z,15.10
2018-11-14T23:36:41.063Z,13.70
2018-11-14T23:39:13.650Z,12.80
2018-11-14T23:41:43.414Z,13.60
2018-11-14T23:44:13.236Z,14.33
2018-11-14T23:46:43.230Z,13.83
2018-11-14T23:49:13.256Z,12.57
2018-11-14T23:51:43.171Z,12.00
2018-11-14T23:54:13.266Z,12.27
2018-11-14T23:56:43.092Z,11.97
2018-11-14T23:59:12.910Z,12.40
